createdAt,value
2018-08-30T00:02:02.111Z,22.11
2018-08-30T00:04:31.256Z,22.14
2018-08-30T00:07:00.453Z,22.15
2018-08-30T00:09:29.727Z,22.12
2018-08-30T00:11:59.220Z,22.05
2018-08-30T00:14:28.556Z,22.12
2018-08-30T00:16:57.531Z,22.27
2018-08-30T00:19:26.607Z,22.33
2018-08-30T00:21:55.946Z,22.39
2018-08-30T00:24:25.142Z,22.36
2018-08-30T00:26:54.267Z,22.28
2018-08-30T00:29:23.588Z,22.18
2018-08-30T00:31:52.852Z,22.04
2018-08-30T00:34:22.138Z,22.11
2018-08-30T00:36:51.807Z,22.10
2018-08-30T00:39:20.751Z,22.03
2018-08-30T00:41:49.885Z,21.94
2018-08-30T00:44:19.179Z,21.88
2018-08-30T00:46:48.521Z,21.95
2018-08-30T00:49:17.766Z,21.91
2018-08-30T00:51:46.931Z,21.83
2018-08-30T00:54:16.107Z,21.71
2018-08-30T00:56:45.620Z,21.81
2018-08-30T00:59:14.819Z,21.83
2018-08-30T01:01:44.099Z,21.72
2018-08-30T01:04:13.371Z,21.61
2018-08-30T01:06:42.376Z,21.50
2018-08-30T01:09:11.719Z,21.40
2018-08-30T01:11:40.896Z,21.35
2018-08-30T01:14:10.220Z,21.31
2018-08-30T01:16:39.263Z,21.29
2018-08-30T01:19:08.533Z,21.29
2018-08-30T01:21:37.671Z,21.27
2018-08-30T01:24:06.978Z,21.19
2018-08-30T01:26:36.274Z,21.12
2018-08-30T01:29:05.528Z,21.11
2018-08-30T01:31:34.872Z,21.14
2018-08-30T01:34:04.374Z,21.15
2018-08-30T01:36:33.308Z,21.09
2018-08-30T01:39:02.668Z,21.26
2018-08-30T01:41:31.808Z,21.29
2018-08-30T01:44:00.923Z,21.35
2018-08-30T01:46:30.324Z,21.27
2018-08-30T01:48:59.723Z,21.19
2018-08-30T01:51:29.061Z,21.27
2018-08-30T01:53:58.523Z,21.22
2018-08-30T01:56:27.662Z,21.17
2018-08-30T01:58:57.022Z,21.16
2018-08-30T02:01:26.267Z,21.11
2018-08-30T02:03:55.471Z,21.12
2018-08-30T02:06:24.762Z,21.10
2018-08-30T02:08:54.211Z,21.11
2018-08-30T02:11:23.179Z,21.15
2018-08-30T02:13:52.278Z,21.09
2018-08-30T02:16:21.475Z,20.99
2018-08-30T02:18:50.758Z,21.00
2018-08-30T02:21:19.968Z,21.06
2018-08-30T02:23:49.166Z,21.02
2018-08-30T02:26:18.219Z,21.00
2018-08-30T02:28:47.107Z,20.97
2018-08-30T02:31:16.489Z,20.88
2018-08-30T02:33:45.783Z,20.84
2018-08-30T02:36:15.114Z,20.81
2018-08-30T02:38:44.610Z,20.73
2018-08-30T02:41:13.807Z,20.66
2018-08-30T02:43:43.078Z,20.76
2018-08-30T02:46:12.412Z,20.67
2018-08-30T02:48:41.762Z,20.60
2018-08-30T02:51:10.972Z,20.58
2018-08-30T02:53:40.034Z,20.66
2018-08-30T02:56:09.208Z,20.69
2018-08-30T02:58:38.714Z,20.66
2018-08-30T03:01:07.840Z,20.56
2018-08-30T03:03:37.259Z,20.43
2018-08-30T03:06:06.560Z,20.37
2018-08-30T03:08:35.861Z,20.30
2018-08-30T03:11:05.139Z,20.29
2018-08-30T03:13:34.286Z,20.29
2018-08-30T03:16:03.347Z,20.57
2018-08-30T03:18:32.390Z,20.51
2018-08-30T03:21:01.751Z,20.56
2018-08-30T03:23:31.185Z,20.59
2018-08-30T03:26:00.588Z,20.58
2018-08-30T03:28:29.987Z,20.57
2018-08-30T03:30:59.003Z,20.62
2018-08-30T03:33:28.065Z,20.54
2018-08-30T03:35:57.092Z,20.62
2018-08-30T03:38:26.371Z,20.67
2018-08-30T03:40:55.666Z,20.68
2018-08-30T03:43:25.016Z,20.56
2018-08-30T03:45:54.247Z,20.58
2018-08-30T03:48:23.508Z,20.50
2018-08-30T03:50:52.595Z,20.43
2018-08-30T03:53:21.943Z,20.64
2018-08-30T03:55:51.049Z,20.58
2018-08-30T03:58:20.296Z,20.48
2018-08-30T04:00:49.243Z,20.66
2018-08-30T04:03:18.312Z,20.59
2018-08-30T04:05:47.579Z,20.62
2018-08-30T04:08:16.595Z,20.58
2018-08-30T04:10:45.884Z,20.51
2018-08-30T04:13:14.948Z,20.49
2018-08-30T04:15:44.292Z,20.50
2018-08-30T04:18:13.570Z,20.51
2018-08-30T04:20:42.539Z,20.51
2018-08-30T04:23:11.699Z,20.57
2018-08-30T04:25:40.886Z,20.60
2018-08-30T04:28:10.076Z,20.70
2018-08-30T04:30:39.236Z,20.78
2018-08-30T04:33:08.469Z,20.86
2018-08-30T04:35:37.988Z,20.95
2018-08-30T04:38:07.271Z,20.99
2018-08-30T04:40:36.691Z,21.06
2018-08-30T04:43:05.941Z,21.09
2018-08-30T04:45:35.085Z,21.12
2018-08-30T04:48:04.376Z,21.17
2018-08-30T04:50:33.823Z,21.20
2018-08-30T04:53:02.968Z,21.28
2018-08-30T04:55:32.121Z,21.40
2018-08-30T04:58:01.463Z,21.48
2018-08-30T05:00:30.728Z,21.46
2018-08-30T05:02:59.979Z,21.71
2018-08-30T05:05:29.423Z,21.83
2018-08-30T05:07:58.727Z,21.98
2018-08-30T05:10:28.061Z,22.02
2018-08-30T05:12:57.435Z,22.06
2018-08-30T05:15:26.631Z,22.11
2018-08-30T05:17:55.800Z,22.16
2018-08-30T05:20:25.112Z,22.33
2018-08-30T05:22:54.147Z,22.41
2018-08-30T05:25:23.415Z,22.51
2018-08-30T05:27:52.644Z,22.62
2018-08-30T05:30:21.630Z,22.67
2018-08-30T05:32:50.938Z,22.75
2018-08-30T05:35:20.224Z,22.81
2018-08-30T05:37:49.548Z,22.90
2018-08-30T05:40:19.164Z,23.01
2018-08-30T05:42:48.115Z,23.13
2018-08-30T05:45:17.395Z,23.29
2018-08-30T05:47:46.367Z,23.37
2018-08-30T05:50:15.771Z,23.57
2018-08-30T05:52:45.163Z,23.68
2018-08-30T05:55:14.547Z,23.84
2018-08-30T05:57:43.579Z,23.95
2018-08-30T06:00:12.880Z,23.97
2018-08-30T06:02:41.970Z,24.01
2018-08-30T06:05:11.275Z,24.01
2018-08-30T06:07:40.410Z,24.09
2018-08-30T06:10:09.675Z,24.26
2018-08-30T06:12:38.792Z,24.17
2018-08-30T06:15:08.200Z,24.23
2018-08-30T06:17:37.192Z,24.30
2018-08-30T06:20:06.335Z,24.38
2018-08-30T06:22:35.547Z,24.45
2018-08-30T06:25:04.880Z,24.56
2018-08-30T06:27:34.050Z,24.61
2018-08-30T06:30:03.547Z,24.74
2018-08-30T06:32:32.686Z,24.67
2018-08-30T06:35:01.894Z,24.66
2018-08-30T06:37:31.127Z,24.64
2018-08-30T06:40:00.215Z,24.68
2018-08-30T06:42:29.200Z,24.74
2018-08-30T06:44:58.403Z,24.84
2018-08-30T06:47:27.625Z,24.89
2018-08-30T06:49:56.980Z,24.93
2018-08-30T06:52:26.028Z,24.95
2018-08-30T06:54:55.235Z,24.95
2018-08-30T06:57:24.394Z,24.94
2018-08-30T06:59:53.598Z,24.91
2018-08-30T07:02:22.888Z,25.00
2018-08-30T07:04:51.850Z,25.12
2018-08-30T07:07:21.000Z,25.23
2018-08-30T07:09:50.161Z,25.29
2018-08-30T07:12:19.538Z,25.42
2018-08-30T07:14:48.913Z,25.57
2018-08-30T07:17:18.408Z,25.73
2018-08-30T07:19:47.831Z,25.71
2018-08-30T07:22:17.067Z,25.83
2018-08-30T07:24:46.537Z,25.87
2018-08-30T07:27:15.715Z,25.84
2018-08-30T07:29:45.103Z,25.89
2018-08-30T07:32:14.584Z,25.90
2018-08-30T07:34:43.681Z,25.92
2018-08-30T07:37:12.630Z,26.01
2018-08-30T07:39:42.072Z,26.16
2018-08-30T07:42:11.148Z,26.25
2018-08-30T07:44:40.467Z,26.33
2018-08-30T07:47:09.810Z,26.40
2018-08-30T07:49:39.292Z,26.52
2018-08-30T07:52:08.296Z,26.70
2018-08-30T07:54:37.456Z,26.84
2018-08-30T07:57:06.712Z,27.00
2018-08-30T07:59:35.949Z,27.17
2018-08-30T08:02:04.997Z,27.51
2018-08-30T08:04:34.353Z,28.03
2018-08-30T08:07:03.555Z,28.62
2018-08-30T08:09:32.875Z,29.23
2018-08-30T08:12:02.111Z,29.85
2018-08-30T08:14:31.492Z,30.30
2018-08-30T08:17:00.671Z,30.63
2018-08-30T08:19:29.936Z,31.34
2018-08-30T08:21:59.250Z,32.08
2018-08-30T08:24:28.214Z,33.15
2018-08-30T08:26:57.474Z,34.33
2018-08-30T08:29:26.734Z,35.32
2018-08-30T08:31:56.160Z,36.16
2018-08-30T08:34:25.326Z,36.61
2018-08-30T08:36:54.649Z,36.84
2018-08-30T08:39:24.055Z,36.99
2018-08-30T08:41:53.412Z,37.14
2018-08-30T08:44:22.759Z,36.79
2018-08-30T08:46:52.114Z,36.53
2018-08-30T08:49:21.449Z,36.81
2018-08-30T08:51:50.637Z,37.12
2018-08-30T08:54:19.966Z,37.26
2018-08-30T08:56:49.271Z,37.30
2018-08-30T08:59:18.631Z,37.35
2018-08-30T09:01:47.916Z,37.66
2018-08-30T09:04:17.228Z,37.73
2018-08-30T09:06:46.509Z,37.72
2018-08-30T09:09:15.652Z,37.83
2018-08-30T09:11:45.052Z,37.91
2018-08-30T09:14:14.381Z,37.80
2018-08-30T09:16:43.855Z,37.70
2018-08-30T09:19:13.229Z,37.80
2018-08-30T09:21:42.652Z,37.69
2018-08-30T09:24:11.861Z,37.64
2018-08-30T09:26:40.920Z,37.46
2018-08-30T09:29:09.858Z,37.17
2018-08-30T09:31:39.344Z,36.94
2018-08-30T09:34:08.858Z,36.88
2018-08-30T09:36:38.202Z,37.23
2018-08-30T09:39:09.271Z,38.03
2018-08-30T09:41:38.563Z,38.84
2018-08-30T09:44:07.891Z,39.84
2018-08-30T09:46:37.107Z,40.84
2018-08-30T09:49:06.714Z,41.61
2018-08-30T09:51:35.995Z,42.32
2018-08-30T09:54:05.257Z,43.21
2018-08-30T09:56:34.436Z,44.12
2018-08-30T09:59:03.890Z,45.14
2018-08-30T10:01:38.299Z,45.84
2018-08-30T10:04:07.341Z,46.46
2018-08-30T10:06:36.560Z,46.95
2018-08-30T10:09:08.375Z,47.07
2018-08-30T10:11:37.803Z,47.08
2018-08-30T10:14:06.788Z,47.63
2018-08-30T10:16:36.065Z,48.38
2018-08-30T10:19:05.410Z,48.54
2018-08-30T10:21:34.762Z,48.20
2018-08-30T10:24:03.846Z,48.52
2018-08-30T10:26:33.071Z,48.13
2018-08-30T10:29:02.643Z,47.27
2018-08-30T10:31:31.775Z,47.48
2018-08-30T10:34:00.849Z,47.64
2018-08-30T10:36:30.079Z,46.56
2018-08-30T10:38:59.254Z,46.83
2018-08-30T10:41:28.527Z,47.78
2018-08-30T10:43:57.933Z,48.45
2018-08-30T10:46:27.423Z,48.45
2018-08-30T10:48:56.412Z,48.26
2018-08-30T10:51:25.744Z,47.62
2018-08-30T10:53:54.689Z,47.10
2018-08-30T10:56:24.240Z,46.87
2018-08-30T10:58:53.680Z,47.10
2018-08-30T11:01:23.023Z,47.70
2018-08-30T11:03:52.610Z,47.55
2018-08-30T11:06:22.183Z,48.28
2018-08-30T11:08:51.142Z,47.93
2018-08-30T11:11:20.462Z,49.15
2018-08-30T11:13:49.899Z,50.19
2018-08-30T11:16:18.723Z,49.28
2018-08-30T11:18:47.951Z,50.33
2018-08-30T11:21:17.250Z,50.87
2018-08-30T11:23:46.485Z,50.39
2018-08-30T11:26:15.760Z,50.43
2018-08-30T11:28:45.105Z,50.55
2018-08-30T11:31:14.515Z,50.41
2018-08-30T11:33:43.496Z,50.46
2018-08-30T11:36:12.612Z,50.33
2018-08-30T11:38:42.088Z,49.95
2018-08-30T11:41:11.395Z,49.26
2018-08-30T11:43:40.860Z,47.98
2018-08-30T11:46:10.244Z,48.59
2018-08-30T11:48:39.549Z,49.37
2018-08-30T11:51:08.812Z,50.01
2018-08-30T11:53:38.007Z,49.18
2018-08-30T11:56:07.307Z,47.29
2018-08-30T11:58:36.693Z,47.91
2018-08-30T12:01:05.826Z,49.21
2018-08-30T12:03:35.109Z,50.03
2018-08-30T12:06:04.419Z,49.96
2018-08-30T12:08:33.757Z,49.76
2018-08-30T12:11:03.121Z,50.20
2018-08-30T12:13:32.216Z,50.60
2018-08-30T12:16:01.430Z,50.62
2018-08-30T12:18:30.675Z,50.84
2018-08-30T12:21:00.019Z,51.19
2018-08-30T12:23:29.493Z,50.72
2018-08-30T12:25:58.974Z,50.43
2018-08-30T12:28:28.469Z,49.62
2018-08-30T12:30:57.686Z,49.79
2018-08-30T12:33:27.080Z,50.46
2018-08-30T12:35:56.336Z,50.80
2018-08-30T12:38:25.707Z,50.98
2018-08-30T12:40:54.905Z,51.11
2018-08-30T12:43:24.492Z,51.10
2018-08-30T12:45:53.852Z,51.25
2018-08-30T12:48:22.956Z,51.09
2018-08-30T12:50:52.469Z,51.22
2018-08-30T12:53:21.858Z,51.05
2018-08-30T12:55:50.948Z,50.86
2018-08-30T12:58:20.121Z,50.81
2018-08-30T13:00:49.313Z,50.72
2018-08-30T13:03:18.896Z,50.78
2018-08-30T13:05:48.475Z,50.52
2018-08-30T13:08:17.919Z,49.98
2018-08-30T13:10:47.127Z,50.35
2018-08-30T13:13:16.046Z,49.87
2018-08-30T13:15:44.946Z,48.97
2018-08-30T13:18:14.227Z,48.76
2018-08-30T13:20:43.563Z,48.76
2018-08-30T13:23:13.080Z,48.40
2018-08-30T13:25:42.088Z,48.41
2018-08-30T13:28:11.600Z,47.83
2018-08-30T13:30:41.148Z,47.99
2018-08-30T13:33:10.445Z,48.13
2018-08-30T13:35:39.523Z,48.13
2018-08-30T13:38:09.177Z,47.72
2018-08-30T13:40:38.275Z,47.76
2018-08-30T13:43:07.597Z,47.16
2018-08-30T13:45:36.855Z,45.32
2018-08-30T13:48:06.267Z,42.76
2018-08-30T13:50:35.773Z,41.60
2018-08-30T13:53:05.150Z,41.01
2018-08-30T13:55:34.418Z,40.51
2018-08-30T13:58:03.236Z,40.17
2018-08-30T14:00:32.858Z,39.94
2018-08-30T14:03:01.813Z,39.60
2018-08-30T14:05:31.335Z,39.09
2018-08-30T14:08:00.701Z,38.82
2018-08-30T14:10:29.930Z,38.40
2018-08-30T14:12:59.282Z,37.78
2018-08-30T14:15:28.354Z,37.62
2018-08-30T14:17:57.406Z,37.46
2018-08-30T14:20:26.588Z,37.03
2018-08-30T14:22:55.895Z,36.85
2018-08-30T14:25:25.048Z,36.41
2018-08-30T14:27:54.028Z,36.05
2018-08-30T14:30:23.228Z,35.82
2018-08-30T14:32:52.515Z,35.57
2018-08-30T14:35:21.767Z,35.59
2018-08-30T14:37:51.105Z,35.47
2018-08-30T14:40:19.964Z,35.36
2018-08-30T14:42:49.309Z,35.16
2018-08-30T14:45:18.377Z,35.01
2018-08-30T14:47:47.856Z,35.01
2018-08-30T14:50:16.973Z,34.77
2018-08-30T14:52:46.121Z,34.57
2018-08-30T14:55:15.342Z,34.44
2018-08-30T14:57:44.757Z,34.38
2018-08-30T15:00:14.281Z,34.35
2018-08-30T15:02:43.314Z,34.06
2018-08-30T15:05:12.876Z,33.90
2018-08-30T15:07:42.061Z,33.75
2018-08-30T15:10:11.416Z,33.65
2018-08-30T15:12:40.617Z,33.61
2018-08-30T15:15:09.853Z,33.41
2018-08-30T15:17:38.807Z,33.25
2018-08-30T15:20:08.298Z,33.34
2018-08-30T15:22:37.891Z,32.97
2018-08-30T15:25:07.276Z,32.90
2018-08-30T15:27:36.707Z,32.80
2018-08-30T15:30:06.204Z,32.75
2018-08-30T15:32:35.626Z,32.65
2018-08-30T15:35:05.041Z,32.74
2018-08-30T15:37:34.252Z,32.52
2018-08-30T15:40:03.600Z,32.51
2018-08-30T15:42:32.655Z,32.44
2018-08-30T15:45:01.921Z,32.26
2018-08-30T15:47:31.249Z,32.16
2018-08-30T15:50:00.543Z,31.98
2018-08-30T15:52:30.048Z,31.82
2018-08-30T15:54:59.509Z,31.69
2018-08-30T15:57:28.645Z,31.58
2018-08-30T15:59:58.071Z,31.40
2018-08-30T16:02:27.232Z,31.34
2018-08-30T16:04:56.539Z,31.18
2018-08-30T16:07:25.692Z,31.05
2018-08-30T16:09:54.690Z,30.89
2018-08-30T16:12:23.914Z,30.73
2018-08-30T16:14:53.454Z,30.59
2018-08-30T16:17:22.789Z,30.46
2018-08-30T16:19:51.747Z,30.35
2018-08-30T16:22:21.420Z,30.14
2018-08-30T16:24:51.215Z,30.04
2018-08-30T16:27:20.471Z,29.85
2018-08-30T16:29:49.941Z,29.66
2018-08-30T16:32:19.015Z,29.48
2018-08-30T16:34:48.162Z,29.35
2018-08-30T16:37:17.539Z,29.08
2018-08-30T16:39:46.855Z,29.06
2018-08-30T16:42:16.122Z,29.04
2018-08-30T16:44:45.332Z,28.91
2018-08-30T16:47:14.814Z,28.84
2018-08-30T16:49:44.536Z,28.72
2018-08-30T16:52:14.107Z,28.65
2018-08-30T16:54:43.283Z,28.85
2018-08-30T16:57:12.571Z,28.79
2018-08-30T16:59:41.972Z,28.80
2018-08-30T17:02:11.457Z,28.69
2018-08-30T17:04:40.631Z,28.60
2018-08-30T17:07:09.821Z,28.60
2018-08-30T17:09:40.209Z,28.50
2018-08-30T17:12:09.629Z,28.57
2018-08-30T17:14:39.028Z,28.40
2018-08-30T17:17:08.205Z,28.39
2018-08-30T17:19:37.257Z,28.46
2018-08-30T17:22:06.700Z,28.45
2018-08-30T17:24:35.631Z,28.31
2018-08-30T17:27:04.595Z,28.15
2018-08-30T17:29:34.024Z,28.06
2018-08-30T17:32:03.348Z,27.86
2018-08-30T17:34:32.630Z,27.79
2018-08-30T17:37:02.504Z,27.73
2018-08-30T17:39:31.624Z,27.55
2018-08-30T17:42:00.772Z,27.63
2018-08-30T17:44:29.795Z,27.63
2018-08-30T17:46:58.782Z,27.70
2018-08-30T17:49:28.025Z,27.88
2018-08-30T17:51:57.769Z,27.89
2018-08-30T17:54:27.059Z,27.85
2018-08-30T17:56:56.317Z,27.99
2018-08-30T17:59:25.791Z,27.97
2018-08-30T18:01:58.042Z,27.92
2018-08-30T18:04:27.356Z,27.88
2018-08-30T18:06:56.799Z,27.74
2018-08-30T18:09:26.093Z,27.94
2018-08-30T18:11:55.752Z,27.95
2018-08-30T18:14:24.716Z,27.75
2018-08-30T18:16:53.883Z,27.70
2018-08-30T18:19:23.238Z,27.77
2018-08-30T18:21:52.428Z,27.81
2018-08-30T18:24:21.934Z,27.70
2018-08-30T18:26:51.249Z,27.76
2018-08-30T18:29:20.645Z,27.57
2018-08-30T18:31:49.712Z,27.68
2018-08-30T18:34:19.116Z,27.70
2018-08-30T18:36:49.087Z,27.60
2018-08-30T18:39:18.436Z,27.46
2018-08-30T18:41:47.711Z,27.49
2018-08-30T18:44:17.055Z,27.46
2018-08-30T18:46:46.748Z,27.46
2018-08-30T18:49:16.179Z,27.37
2018-08-30T18:51:45.593Z,27.44
2018-08-30T18:54:14.691Z,27.45
2018-08-30T18:56:44.418Z,27.44
2018-08-30T18:59:13.672Z,27.40
2018-08-30T19:01:43.118Z,27.44
2018-08-30T19:04:12.792Z,27.51
2018-08-30T19:06:42.134Z,27.50
2018-08-30T19:09:12.396Z,27.50
2018-08-30T19:11:42.568Z,27.49
2018-08-30T19:14:12.564Z,27.42
2018-08-30T19:16:46.895Z,27.41
2018-08-30T19:19:18.152Z,27.42
2018-08-30T19:21:47.602Z,27.41
2018-08-30T19:24:21.835Z,27.37
2018-08-30T19:26:51.205Z,27.42
2018-08-30T19:29:20.704Z,27.38
2018-08-30T19:31:49.907Z,27.35
2018-08-30T19:34:19.389Z,27.29
2018-08-30T19:36:48.732Z,27.28
2018-08-30T19:39:18.046Z,27.29
2018-08-30T19:41:47.230Z,27.30
2018-08-30T19:44:16.626Z,27.28
2018-08-30T19:46:45.752Z,27.19
2018-08-30T19:49:15.133Z,27.13
2018-08-30T19:51:44.322Z,27.17
2018-08-30T19:54:13.435Z,27.14
2018-08-30T19:56:42.444Z,27.08
2018-08-30T19:59:11.607Z,27.07
2018-08-30T20:01:41.076Z,26.92
2018-08-30T20:04:10.267Z,26.69
2018-08-30T20:06:39.636Z,26.59
2018-08-30T20:09:09.094Z,26.49
2018-08-30T20:11:38.380Z,26.51
2018-08-30T20:14:07.919Z,26.38
2018-08-30T20:16:37.045Z,26.20
2018-08-30T20:19:06.558Z,25.93
2018-08-30T20:21:35.830Z,25.86
2018-08-30T20:24:05.130Z,25.68
2018-08-30T20:26:34.337Z,25.57
2018-08-30T20:29:03.627Z,25.53
2018-08-30T20:31:32.668Z,25.49
2018-08-30T20:34:02.020Z,25.41
2018-08-30T20:36:31.209Z,25.36
2018-08-30T20:39:00.611Z,25.32
2018-08-30T20:41:29.999Z,25.14
2018-08-30T20:43:59.415Z,25.23
2018-08-30T20:46:28.633Z,25.11
2018-08-30T20:48:57.971Z,25.09
2018-08-30T20:51:27.098Z,25.05
2018-08-30T20:53:56.128Z,25.08
2018-08-30T20:56:25.632Z,25.02
2018-08-30T20:58:54.757Z,24.87
2018-08-30T21:01:24.154Z,24.83
2018-08-30T21:03:53.184Z,24.87
2018-08-30T21:06:22.451Z,24.85
2018-08-30T21:08:51.433Z,24.72
2018-08-30T21:11:20.614Z,24.79
2018-08-30T21:13:49.903Z,24.76
2018-08-30T21:16:19.126Z,24.73
2018-08-30T21:18:48.359Z,24.68
2018-08-30T21:21:17.775Z,24.48
2018-08-30T21:23:46.668Z,24.52
2018-08-30T21:26:15.899Z,24.59
2018-08-30T21:28:45.148Z,24.56
2018-08-30T21:31:14.366Z,24.59
2018-08-30T21:33:43.754Z,24.60
2018-08-30T21:36:13.096Z,24.56
2018-08-30T21:38:42.445Z,24.46
2018-08-30T21:41:11.795Z,24.38
2018-08-30T21:43:41.006Z,24.30
2018-08-30T21:46:10.310Z,24.23
2018-08-30T21:48:39.687Z,24.18
2018-08-30T21:51:09.023Z,24.22
2018-08-30T21:53:38.471Z,24.12
2018-08-30T21:56:08.068Z,24.02
2018-08-30T21:58:37.160Z,23.97
2018-08-30T22:01:06.166Z,23.87
2018-08-30T22:03:35.407Z,23.97
2018-08-30T22:06:04.598Z,23.92
2018-08-30T22:08:33.988Z,23.91
2018-08-30T22:11:03.395Z,23.85
2018-08-30T22:13:32.761Z,23.73
2018-08-30T22:16:02.262Z,23.69
2018-08-30T22:18:31.599Z,23.63
2018-08-30T22:21:00.671Z,23.63
2018-08-30T22:23:29.699Z,23.60
2018-08-30T22:25:59.188Z,23.50
2018-08-30T22:28:28.336Z,23.26
2018-08-30T22:30:57.644Z,23.41
2018-08-30T22:33:26.957Z,23.35
2018-08-30T22:35:56.124Z,23.32
2018-08-30T22:38:25.375Z,23.35
2018-08-30T22:40:54.720Z,23.32
2018-08-30T22:43:23.962Z,23.30
2018-08-30T22:45:53.268Z,23.28
2018-08-30T22:48:22.496Z,23.05
2018-08-30T22:50:51.918Z,23.06
2018-08-30T22:53:21.051Z,23.28
2018-08-30T22:55:50.414Z,23.29
2018-08-30T22:58:19.730Z,23.31
2018-08-30T23:00:48.779Z,23.32
2018-08-30T23:03:18.075Z,23.33
2018-08-30T23:05:47.530Z,23.35
2018-08-30T23:08:16.692Z,23.38
2018-08-30T23:10:45.723Z,23.41
2018-08-30T23:13:15.250Z,23.43
2018-08-30T23:15:44.400Z,23.36
2018-08-30T23:18:13.745Z,23.24
2018-08-30T23:20:42.855Z,23.08
2018-08-30T23:23:12.244Z,22.94
2018-08-30T23:25:41.530Z,22.84
2018-08-30T23:28:10.647Z,22.84
2018-08-30T23:30:40.038Z,22.76
2018-08-30T23:33:09.355Z,22.64
2018-08-30T23:35:38.683Z,22.64
2018-08-30T23:38:08.448Z,22.60
2018-08-30T23:40:37.817Z,22.60
2018-08-30T23:43:07.174Z,22.50
2018-08-30T23:45:36.150Z,22.49
2018-08-30T23:48:05.423Z,22.63
2018-08-30T23:50:34.678Z,22.63
2018-08-30T23:53:03.818Z,22.61
2018-08-30T23:55:33.136Z,22.58
2018-08-30T23:58:13.189Z,22.68
